Cosco Melbourne — V7IF5 — position and weather

sailwx.info

Track history (hours):
 
Tides and Currents Weather Stations Pressure Air Temp Water Temp Dewpoint Dewpoint Depression Visibility Wind Speed Wind Dir Waves Ship Positions

Cosco Melbourne

Last reported at 2016-May-05 01:33 UTC. Time now 2016-May-05 14:18 UTC.
Position N 22°23' E 120°06'.

Type: Ship (hazmat cat A). MMSI: 538002366.

Date/timePositionNaut miles runAvg speedWind from/ knotsBaromVisibWave heightAir tempDewpointWater temp
2016-May-05 01:33N 22°23' E 120°06'1613.3
2016-May-05 00:22N 22°33' E 120°20'0 0.3
2016-May-04 23:32N 22°33' E 120°20'0 0.0
2016-May-04 20:28N 22°33' E 120°20'0 0.0
2016-May-04 19:25N 22°33' E 120°20'0 0.0
2016-May-04 18:27N 22°33' E 120°20'0 0.0
2016-May-04 17:33N 22°33' E 120°20'0 0.1
2016-May-04 16:33N 22°33' E 120°20'0 0.1
2016-May-04 15:33N 22°33' E 120°20'0 0.0
2016-May-04 14:33N 22°33' E 120°20'3 3.2
2016-May-04 13:31N 22°32' E 120°16'1212.5
2016-May-04 12:33N 22°41' E 120°07'42818.5
2016-May-03 13:27N 29°32' E 122°20'1415.4
2016-May-03 12:32N 29°46' E 122°17'1312.3
2016-May-03 11:31N 29°55' E 122°08'1212.4
2016-May-03 10:33N 29°57' E 121°54'2 0.8
2016-May-03 08:17N 29°56' E 121°52'0 0.0
2016-May-03 02:32N 29°56' E 121°52'8 7.3
2016-May-03 01:30N 29°56' E 122°01'1111.1
2016-May-03 00:33N 29°52' E 122°12'9 7.9
2016-May-02 23:21N 29°46' E 122°20'0 0.1
2016-May-02 22:26N 29°46' E 122°21'2 2.7
2016-May-02 21:33N 29°45' E 122°23'2 2.3
2016-May-02 20:30N 29°46' E 122°26'0 0.1
2016-May-02 19:31N 29°46' E 122°26'0 0.0
2016-May-02 16:17N 29°46' E 122°26'0 0.0
2016-May-02 15:30N 29°46' E 122°26'0 0.0
2016-May-02 11:04N 29°46' E 122°26'0 0.0
2016-May-02 10:29N 29°46' E 122°26'0 0.0
2016-May-02 09:29N 29°46' E 122°26'0 0.0
2016-May-02 08:33N 29°46' E 122°26'0 0.0
2016-May-02 07:30N 29°46' E 122°26'0 0.0
2016-May-02 06:27N 29°46' E 122°26'0 0.0
2016-May-02 05:28N 29°46' E 122°26'0 0.0
2016-May-02 04:33N 29°46' E 122°26'0 0.0
2016-May-02 03:24N 29°46' E 122°26'0 0.0
2016-May-02 02:31N 29°46' E 122°26'0 0.0
2016-May-02 01:18N 29°46' E 122°26'0 0.1
2016-May-02 00:30N 29°46' E 122°26'0 0.0
2016-May-01 23:20N 29°46' E 122°26'0 0.0
2016-May-01 22:25N 29°46' E 122°26'0 0.0
2016-May-01 21:29N 29°46' E 122°26'0 0.0
2016-May-01 20:28N 29°46' E 122°26'0 0.0
2016-May-01 19:33N 29°46' E 122°26'0 0.0
2016-May-01 18:33N 29°46' E 122°26'0 0.0
2016-May-01 17:26N 29°46' E 122°26'0 0.0
2016-May-01 16:33N 29°46' E 122°26'0 0.0
2016-May-01 15:33N 29°46' E 122°26'0 0.0
2016-May-01 14:33N 29°46' E 122°26'0 0.0
2016-May-01 13:32N 29°46' E 122°26'0 0.0
2016-May-01 12:12N 29°46' E 122°26'99 5.9
2016-Apr-30 19:29N 31°19' E 121°44'4 1.4
2016-Apr-30 16:32N 31°20' E 121°39'0 0.0
2016-Apr-30 15:11N 31°20' E 121°39'0 0.0
2016-Apr-30 12:24N 31°20' E 121°39'0 0.0
2016-Apr-30 11:33N 31°20' E 121°39'0 0.0
2016-Apr-30 10:21N 31°20' E 121°39'0 0.0
2016-Apr-30 09:22N 31°20' E 121°39'0 0.0
2016-Apr-30 08:33N 31°20' E 121°39'1 1.0
2016-Apr-30 07:33N 31°21' E 121°41'71 7.0
2016-Apr-29 21:28N 31°00' E 123°00'7 7.7
2016-Apr-29 20:32N 30°53' E 123°01'8 8.0
2016-Apr-29 19:33N 30°45' E 122°59'10 8.3
2016-Apr-29 18:20N 30°35' E 122°59'6 8.2
2016-Apr-29 17:33N 30°29' E 122°60'10 8.2
2016-Apr-29 16:24N 30°19' E 123°00'7 7.6
2016-Apr-29 15:25N 30°12' E 122°59'7 7.1
2016-Apr-29 14:24N 30°05' E 122°58'7 6.6
2016-Apr-29 13:16N 29°58' E 122°55'46312.2
2016-Apr-27 23:28N 22°40' E 120°10'12 5.7
2016-Apr-27 21:27N 22°33' E 120°20'0 0.0
2016-Apr-27 20:30N 22°33' E 120°20'0 0.0
2016-Apr-27 19:28N 22°33' E 120°20'0 0.0
2016-Apr-27 18:28N 22°33' E 120°20'  
Track history (hours):
 
Tides and Currents Weather Stations Pressure Air Temp Water Temp Dewpoint Dewpoint Depression Visibility Wind Speed Wind Dir Waves Ship Positions

Cosco Melbourne

Last reported at 2016-May-05 01:33 UTC. Time now 2016-May-05 14:18 UTC.
Position N 22°23' E 120°06'.

Type: Ship (hazmat cat A). MMSI: 538002366.

Date/timePositionNaut miles runAvg speedWind from/ knotsBaromVisibWave heightAir tempDewpointWater temp
2016-May-05 01:33N 22°23' E 120°06'1613.3
2016-May-05 00:22N 22°33' E 120°20'0 0.3
2016-May-04 23:32N 22°33' E 120°20'0 0.0
2016-May-04 20:28N 22°33' E 120°20'0 0.0
2016-May-04 19:25N 22°33' E 120°20'0 0.0
2016-May-04 18:27N 22°33' E 120°20'0 0.0
2016-May-04 17:33N 22°33' E 120°20'0 0.1
2016-May-04 16:33N 22°33' E 120°20'0 0.1
2016-May-04 15:33N 22°33' E 120°20'0 0.0
2016-May-04 14:33N 22°33' E 120°20'3 3.2
2016-May-04 13:31N 22°32' E 120°16'1212.5
2016-May-04 12:33N 22°41' E 120°07'42818.5
2016-May-03 13:27N 29°32' E 122°20'1415.4
2016-May-03 12:32N 29°46' E 122°17'1312.3
2016-May-03 11:31N 29°55' E 122°08'1212.4
2016-May-03 10:33N 29°57' E 121°54'2 0.8
2016-May-03 08:17N 29°56' E 121°52'0 0.0
2016-May-03 02:32N 29°56' E 121°52'8 7.3
2016-May-03 01:30N 29°56' E 122°01'1111.1
2016-May-03 00:33N 29°52' E 122°12'9 7.9
2016-May-02 23:21N 29°46' E 122°20'0 0.1
2016-May-02 22:26N 29°46' E 122°21'2 2.7
2016-May-02 21:33N 29°45' E 122°23'2 2.3
2016-May-02 20:30N 29°46' E 122°26'0 0.1
2016-May-02 19:31N 29°46' E 122°26'0 0.0
2016-May-02 16:17N 29°46' E 122°26'0 0.0
2016-May-02 15:30N 29°46' E 122°26'0 0.0
2016-May-02 11:04N 29°46' E 122°26'0 0.0
2016-May-02 10:29N 29°46' E 122°26'0 0.0
2016-May-02 09:29N 29°46' E 122°26'0 0.0
2016-May-02 08:33N 29°46' E 122°26'0 0.0
2016-May-02 07:30N 29°46' E 122°26'0 0.0
2016-May-02 06:27N 29°46' E 122°26'0 0.0
2016-May-02 05:28N 29°46' E 122°26'0 0.0
2016-May-02 04:33N 29°46' E 122°26'0 0.0
2016-May-02 03:24N 29°46' E 122°26'0 0.0
2016-May-02 02:31N 29°46' E 122°26'0 0.0
2016-May-02 01:18N 29°46' E 122°26'0 0.1
2016-May-02 00:30N 29°46' E 122°26'0 0.0
2016-May-01 23:20N 29°46' E 122°26'0 0.0
2016-May-01 22:25N 29°46' E 122°26'0 0.0
2016-May-01 21:29N 29°46' E 122°26'0 0.0
2016-May-01 20:28N 29°46' E 122°26'0 0.0
2016-May-01 19:33N 29°46' E 122°26'0 0.0
2016-May-01 18:33N 29°46' E 122°26'0 0.0
2016-May-01 17:26N 29°46' E 122°26'0 0.0
2016-May-01 16:33N 29°46' E 122°26'0 0.0
2016-May-01 15:33N 29°46' E 122°26'0 0.0
2016-May-01 14:33N 29°46' E 122°26'0 0.0
2016-May-01 13:32N 29°46' E 122°26'0 0.0
2016-May-01 12:12N 29°46' E 122°26'99 5.9
2016-Apr-30 19:29N 31°19' E 121°44'4 1.4
2016-Apr-30 16:32N 31°20' E 121°39'0 0.0
2016-Apr-30 15:11N 31°20' E 121°39'0 0.0
2016-Apr-30 12:24N 31°20' E 121°39'0 0.0
2016-Apr-30 11:33N 31°20' E 121°39'0 0.0
2016-Apr-30 10:21N 31°20' E 121°39'0 0.0
2016-Apr-30 09:22N 31°20' E 121°39'0 0.0
2016-Apr-30 08:33N 31°20' E 121°39'1 1.0
2016-Apr-30 07:33N 31°21' E 121°41'71 7.0
2016-Apr-29 21:28N 31°00' E 123°00'7 7.7
2016-Apr-29 20:32N 30°53' E 123°01'8 8.0
2016-Apr-29 19:33N 30°45' E 122°59'10 8.3
2016-Apr-29 18:20N 30°35' E 122°59'6 8.2
2016-Apr-29 17:33N 30°29' E 122°60'10 8.2
2016-Apr-29 16:24N 30°19' E 123°00'7 7.6
2016-Apr-29 15:25N 30°12' E 122°59'7 7.1
2016-Apr-29 14:24N 30°05' E 122°58'7 6.6
2016-Apr-29 13:16N 29°58' E 122°55'46312.2
2016-Apr-27 23:28N 22°40' E 120°10'12 5.7
2016-Apr-27 21:27N 22°33' E 120°20'0 0.0
2016-Apr-27 20:30N 22°33' E 120°20'0 0.0
2016-Apr-27 19:28N 22°33' E 120°20'0 0.0
2016-Apr-27 18:28N 22°33' E 120°20'  

Dump ship's entire track history